createdAt,value
2022-12-08T00:02:06.549Z,19.83
2022-12-08T00:04:54.315Z,24.37
2022-12-08T00:07:39.699Z,24.17
2022-12-08T00:10:39.836Z,23.33
2022-12-08T00:12:55.577Z,22.97
2022-12-08T00:15:26.046Z,20.57
2022-12-08T00:17:53.565Z,20.67
2022-12-08T00:20:21.174Z,23.77
2022-12-08T00:22:50.095Z,22.80
2022-12-08T00:25:17.754Z,25.03
2022-12-08T00:27:45.418Z,26.23
2022-12-08T00:30:13.185Z,25.50
2022-12-08T00:32:40.747Z,24.93
2022-12-08T00:35:08.658Z,22.00
2022-12-08T00:37:36.118Z,19.03
2022-12-08T00:40:05.597Z,19.27
2022-12-08T00:42:33.361Z,21.77
2022-12-08T00:45:00.998Z,24.67
2022-12-08T00:47:28.565Z,21.00
2022-12-08T00:49:56.097Z,22.40
2022-12-08T00:52:23.671Z,23.97
2022-12-08T00:54:51.196Z,27.83
2022-12-08T00:57:20.196Z,34.13
2022-12-08T00:59:47.741Z,23.03
2022-12-08T01:02:15.691Z,25.77
2022-12-08T01:04:43.315Z,22.67
2022-12-08T01:07:11.088Z,26.23
2022-12-08T01:09:38.731Z,24.13
2022-12-08T01:12:06.889Z,24.00
2022-12-08T01:14:35.873Z,20.07
2022-12-08T01:17:03.464Z,21.17
2022-12-08T01:19:31.288Z,20.23
2022-12-08T01:21:58.859Z,27.10
2022-12-08T01:24:26.401Z,20.77
2022-12-08T01:26:54.035Z,19.77
2022-12-08T01:29:22.337Z,21.57
2022-12-08T01:31:51.375Z,20.53
2022-12-08T01:34:19.109Z,22.87
2022-12-08T01:36:47.963Z,22.43
2022-12-08T01:39:16.784Z,21.70
2022-12-08T01:41:45.700Z,20.50
2022-12-08T01:44:32.091Z,23.67
2022-12-08T01:47:00.934Z,32.30
2022-12-08T01:49:29.427Z,20.50
2022-12-08T01:51:58.755Z,23.63
2022-12-08T01:54:29.449Z,24.67
2022-12-08T01:56:59.715Z,25.00
2022-12-08T01:59:27.949Z,23.30
2022-12-08T02:01:55.697Z,23.60
2022-12-08T02:04:24.663Z,20.77
2022-12-08T02:06:52.716Z,20.63
2022-12-08T02:09:20.795Z,20.53
2022-12-08T02:11:48.538Z,20.50
2022-12-08T02:14:16.238Z,24.00
2022-12-08T02:16:46.767Z,23.70
2022-12-08T02:19:32.155Z,21.43
2022-12-08T02:22:05.705Z,20.93
2022-12-08T02:24:38.114Z,22.33
2022-12-08T02:27:23.288Z,20.37
2022-12-08T02:30:03.894Z,20.33
2022-12-08T02:32:41.446Z,22.23
2022-12-08T02:35:11.977Z,20.77
2022-12-08T02:37:41.960Z,31.83
2022-12-08T02:40:13.569Z,30.70
2022-12-08T02:42:43.387Z,22.93
2022-12-08T02:45:14.665Z,26.63
2022-12-08T02:47:42.236Z,24.83
2022-12-08T02:50:11.557Z,24.70
2022-12-08T02:52:40.394Z,21.93
2022-12-08T02:55:10.635Z,23.53
2022-12-08T02:57:41.896Z,20.73
2022-12-08T03:00:10.267Z,24.37
2022-12-08T03:02:54.665Z,26.00
2022-12-08T03:05:32.110Z,31.00
2022-12-08T03:08:04.027Z,25.23
2022-12-08T03:10:34.440Z,24.40
2022-12-08T03:13:05.318Z,24.77
2022-12-08T03:15:33.382Z,22.63
2022-12-08T03:18:01.288Z,33.93
2022-12-08T03:20:31.181Z,28.17
2022-12-08T03:23:01.304Z,25.47
2022-12-08T03:25:31.800Z,30.50
2022-12-08T03:28:00.398Z,30.23
2022-12-08T03:30:28.768Z,26.60
2022-12-08T03:33:00.627Z,27.93
2022-12-08T03:35:31.011Z,27.50
2022-12-08T03:38:04.668Z,31.30
2022-12-08T03:40:32.395Z,31.90
2022-12-08T03:42:59.975Z,30.93
2022-12-08T03:45:27.953Z,28.73
2022-12-08T03:47:55.447Z,33.27
2022-12-08T03:50:23.063Z,38.23
2022-12-08T03:52:50.606Z,32.73
2022-12-08T03:55:21.387Z,46.57
2022-12-08T03:57:48.916Z,52.10
2022-12-08T04:00:17.506Z,31.80
2022-12-08T04:02:45.032Z,38.80
2022-12-08T04:05:12.700Z,47.93
2022-12-08T04:07:40.407Z,50.47
2022-12-08T04:10:08.690Z,41.57
2022-12-08T04:12:37.616Z,61.23
2022-12-08T04:15:05.468Z,56.00
2022-12-08T04:17:32.987Z,38.23
2022-12-08T04:20:00.539Z,62.03
2022-12-08T04:22:28.108Z,95.57
2022-12-08T04:24:55.898Z,50.20
2022-12-08T04:27:23.419Z,45.43
2022-12-08T04:29:52.460Z,67.13
2022-12-08T04:32:20.295Z,70.00
2022-12-08T04:34:47.886Z,87.67
2022-12-08T04:37:15.408Z,33.60
2022-12-08T04:39:42.953Z,44.43
2022-12-08T04:42:10.538Z,75.33
2022-12-08T04:44:38.307Z,70.80
2022-12-08T04:47:09.303Z,67.77
2022-12-08T04:49:38.094Z,84.13
2022-12-08T04:52:05.800Z,56.03
2022-12-08T04:54:33.347Z,66.40
2022-12-08T04:57:00.885Z,103.10
2022-12-08T04:59:28.387Z,86.40
2022-12-08T05:01:56.055Z,82.90
2022-12-08T05:04:25.298Z,83.97
2022-12-08T05:06:52.837Z,65.03
2022-12-08T05:09:20.834Z,71.47
2022-12-08T05:11:49.246Z,90.73
2022-12-08T05:14:17.715Z,74.40
2022-12-08T05:16:45.728Z,109.60
2022-12-08T05:19:13.369Z,47.17
2022-12-08T05:21:42.270Z,45.67
2022-12-08T05:24:09.836Z,30.27
2022-12-08T05:26:37.443Z,49.60
2022-12-08T05:29:05.142Z,36.07
2022-12-08T05:31:32.866Z,48.53
2022-12-08T05:34:03.185Z,84.60
2022-12-08T05:36:31.131Z,41.20
2022-12-08T05:39:00.098Z,50.50
2022-12-08T05:41:27.752Z,101.33
2022-12-08T05:43:55.584Z,49.90
2022-12-08T05:46:23.168Z,47.33
2022-12-08T05:48:51.016Z,54.60
2022-12-08T05:51:20.250Z,64.70
2022-12-08T05:53:48.631Z,59.90
2022-12-08T05:56:17.855Z,56.30
2022-12-08T05:58:45.585Z,44.80
2022-12-08T06:01:19.560Z,65.87
2022-12-08T06:03:47.128Z,45.63
2022-12-08T06:06:14.671Z,58.83
2022-12-08T06:08:42.181Z,56.40
2022-12-08T06:11:09.672Z,38.90
2022-12-08T06:13:38.604Z,43.83
2022-12-08T06:16:06.895Z,37.83
2022-12-08T06:18:34.533Z,46.60
2022-12-08T06:21:05.904Z,46.63
2022-12-08T06:23:33.390Z,74.40
2022-12-08T06:26:04.286Z,43.03
2022-12-08T06:28:32.294Z,41.10
2022-12-08T06:31:01.510Z,51.37
2022-12-08T06:33:29.011Z,48.43
2022-12-08T06:35:56.522Z,56.63
2022-12-08T06:38:24.187Z,53.80
2022-12-08T06:40:54.309Z,48.80
2022-12-08T06:43:22.092Z,97.63
2022-12-08T06:45:50.068Z,53.80
2022-12-08T06:48:19.852Z,36.80
2022-12-08T06:50:47.645Z,40.43
2022-12-08T06:53:16.025Z,36.47
2022-12-08T06:56:02.056Z,36.73
2022-12-08T06:58:29.751Z,34.03
2022-12-08T07:00:57.346Z,36.23
2022-12-08T07:03:26.275Z,40.63
2022-12-08T07:06:00.352Z,36.40
2022-12-08T07:08:31.006Z,55.30
2022-12-08T07:10:58.686Z,60.43
2022-12-08T07:13:26.181Z,43.97
2022-12-08T07:15:53.667Z,44.00
2022-12-08T07:18:21.160Z,41.60
2022-12-08T07:20:50.056Z,42.47
2022-12-08T07:23:17.660Z,41.10
2022-12-08T07:25:45.141Z,44.30
2022-12-08T07:28:13.053Z,47.33
2022-12-08T07:30:40.847Z,44.43
2022-12-08T07:33:08.502Z,39.13
2022-12-08T07:35:36.025Z,41.63
2022-12-08T07:38:04.968Z,44.90
2022-12-08T07:40:32.630Z,45.50
2022-12-08T07:43:00.281Z,45.20
2022-12-08T07:45:31.423Z,38.53
2022-12-08T07:47:59.488Z,47.23
2022-12-08T07:50:27.227Z,43.33
2022-12-08T07:52:55.019Z,40.97
2022-12-08T07:55:24.067Z,54.27
2022-12-08T07:57:51.675Z,45.73
2022-12-08T08:00:19.691Z,53.87
2022-12-08T08:02:47.323Z,60.87
2022-12-08T08:05:15.120Z,53.03
2022-12-08T08:07:43.668Z,63.83
2022-12-08T08:10:11.996Z,53.20
2022-12-08T08:12:40.895Z,42.23
2022-12-08T08:15:09.595Z,36.67
2022-12-08T08:17:38.210Z,71.20
2022-12-08T08:20:07.318Z,72.90
2022-12-08T08:22:35.550Z,40.90
2022-12-08T08:25:03.393Z,33.13
2022-12-08T08:27:31.094Z,42.07
2022-12-08T08:29:59.999Z,39.47
2022-12-08T08:32:27.616Z,37.33
2022-12-08T08:34:55.126Z,55.00
2022-12-08T08:37:22.882Z,57.10
2022-12-08T08:39:50.621Z,68.53
2022-12-08T08:42:18.261Z,50.03
2022-12-08T08:44:46.058Z,50.37
2022-12-08T08:47:15.155Z,43.83
2022-12-08T08:49:42.763Z,49.70
2022-12-08T08:52:10.454Z,39.13
2022-12-08T08:54:38.254Z,34.67
2022-12-08T08:57:05.812Z,40.20
2022-12-08T08:59:33.433Z,46.33
2022-12-08T09:02:01.086Z,44.73
2022-12-08T09:04:30.227Z,45.57
2022-12-08T09:06:57.856Z,49.17
2022-12-08T09:09:25.539Z,51.57
2022-12-08T09:11:53.092Z,46.57
2022-12-08T09:14:20.652Z,50.67
2022-12-08T09:16:48.279Z,48.80
2022-12-08T09:19:15.971Z,41.47
2022-12-08T09:21:45.041Z,44.57
2022-12-08T09:24:15.933Z,38.37
2022-12-08T09:26:47.128Z,43.50
2022-12-08T09:29:14.911Z,41.73
2022-12-08T09:31:43.002Z,48.43
2022-12-08T09:34:11.096Z,45.07
2022-12-08T09:36:38.598Z,50.27
2022-12-08T09:39:07.799Z,40.03
2022-12-08T09:41:40.642Z,43.03
2022-12-08T09:44:21.342Z,41.13
2022-12-08T09:46:50.052Z,38.00
2022-12-08T09:49:19.449Z,38.10
2022-12-08T09:51:47.083Z,38.53
2022-12-08T09:54:18.392Z,34.40
2022-12-08T09:56:45.980Z,34.77
2022-12-08T09:59:22.133Z,33.50
2022-12-08T10:01:49.924Z,38.27
2022-12-08T10:04:21.275Z,39.97
2022-12-08T10:06:51.348Z,32.17
2022-12-08T10:09:29.083Z,33.80
2022-12-08T10:12:00.819Z,34.00
2022-12-08T10:14:32.526Z,33.27
2022-12-08T10:17:02.354Z,31.07
2022-12-08T10:19:30.248Z,29.37
2022-12-08T10:21:58.869Z,28.03
2022-12-08T10:24:33.489Z,30.13
2022-12-08T10:27:01.418Z,24.00
2022-12-08T10:29:29.082Z,28.70
2022-12-08T10:31:58.306Z,24.00
2022-12-08T10:34:26.164Z,27.48
2022-12-08T10:36:56.135Z,20.07
2022-12-08T10:39:35.444Z,15.73
2022-12-08T10:42:18.874Z,13.87
2022-12-08T10:44:54.753Z,12.70
2022-12-08T10:47:23.076Z,9.98
2022-12-08T10:50:07.296Z,13.67
2022-12-08T10:52:39.053Z,12.63
2022-12-08T10:55:15.385Z,12.73
2022-12-08T10:57:43.054Z,12.25
2022-12-08T11:00:14.706Z,17.90
2022-12-08T11:02:53.949Z,14.77
2022-12-08T11:05:22.640Z,13.32
2022-12-08T11:07:51.167Z,12.88
2022-12-08T11:10:21.261Z,11.13
2022-12-08T11:12:50.419Z,13.20
2022-12-08T11:15:18.816Z,10.70
2022-12-08T11:17:52.174Z,9.73
2022-12-08T11:20:24.431Z,8.38
2022-12-08T11:22:54.174Z,8.40
2022-12-08T11:25:24.763Z,10.90
2022-12-08T11:27:53.044Z,9.82
2022-12-08T11:30:21.617Z,8.75
2022-12-08T11:32:50.037Z,9.55
2022-12-08T11:35:23.982Z,10.70
2022-12-08T11:37:51.565Z,13.68
2022-12-08T11:40:21.949Z,11.48
2022-12-08T11:42:54.936Z,9.23
2022-12-08T11:45:25.665Z,10.13
2022-12-08T11:47:59.142Z,8.73
2022-12-08T11:50:28.525Z,11.90
2022-12-08T11:52:57.961Z,8.63
2022-12-08T11:55:36.993Z,7.40
2022-12-08T11:58:13.871Z,8.40
2022-12-08T12:00:41.415Z,9.18
2022-12-08T12:03:13.491Z,7.72
2022-12-08T12:06:09.109Z,11.18
2022-12-08T12:08:42.507Z,6.85
2022-12-08T12:11:33.296Z,7.82
2022-12-08T12:14:12.875Z,5.55
2022-12-08T12:16:56.554Z,10.45
2022-12-08T12:19:24.961Z,6.80
2022-12-08T12:21:53.827Z,7.63
2022-12-08T12:24:26.753Z,9.15
2022-12-08T12:26:58.833Z,9.98
2022-12-08T12:29:29.864Z,7.70
2022-12-08T12:31:59.512Z,9.82
2022-12-08T12:34:29.085Z,7.22
2022-12-08T12:36:57.959Z,10.52
2022-12-08T12:39:28.039Z,8.73
2022-12-08T12:41:56.710Z,7.78
2022-12-08T12:44:39.212Z,13.10
2022-12-08T12:47:11.556Z,7.13
2022-12-08T12:50:06.873Z,7.80
2022-12-08T12:52:53.178Z,8.07
2022-12-08T12:55:22.407Z,8.65
2022-12-08T12:57:52.031Z,7.45
2022-12-08T13:00:20.220Z,6.85
2022-12-08T13:02:49.866Z,8.65
2022-12-08T13:05:19.220Z,9.45
2022-12-08T13:07:50.653Z,8.27
2022-12-08T13:10:19.981Z,6.95
2022-12-08T13:12:55.115Z,7.82
2022-12-08T13:15:22.636Z,12.00
2022-12-08T13:17:51.560Z,5.10
2022-12-08T13:20:21.538Z,6.20
2022-12-08T13:23:13.442Z,8.13
2022-12-08T13:25:59.237Z,6.88
2022-12-08T13:28:28.357Z,12.95
2022-12-08T13:30:57.249Z,8.48
2022-12-08T13:33:30.279Z,8.75
2022-12-08T13:36:03.141Z,8.20
2022-12-08T13:38:33.868Z,9.68
2022-12-08T13:41:02.202Z,10.55
2022-12-08T13:43:44.778Z,14.90
2022-12-08T13:55:49.695Z,8.65
2022-12-08T13:57:36.039Z,9.70
2022-12-08T14:00:06.453Z,8.48
2022-12-08T14:02:35.959Z,9.88
2022-12-08T14:05:34.660Z,8.65
2022-12-08T14:07:54.953Z,11.40
2022-12-08T14:10:25.120Z,13.60
2022-12-08T14:12:55.853Z,7.70
2022-12-08T14:15:23.922Z,9.13
2022-12-08T14:17:54.797Z,10.32
2022-12-08T14:20:26.264Z,8.20
2022-12-08T14:22:54.904Z,9.10
2022-12-08T14:25:22.867Z,9.55
2022-12-08T14:27:51.300Z,7.18
2022-12-08T14:30:20.929Z,9.35
2022-12-08T14:32:50.085Z,11.77
2022-12-08T14:35:23.496Z,21.38
2022-12-08T14:37:54.097Z,10.73
2022-12-08T14:40:23.826Z,6.97
2022-12-08T14:42:52.741Z,8.10
2022-12-08T14:45:20.889Z,8.60
2022-12-08T14:47:48.765Z,10.20
2022-12-08T14:50:35.126Z,9.70
2022-12-08T14:53:04.374Z,10.23
2022-12-08T14:55:35.697Z,8.57
2022-12-08T14:58:03.568Z,18.65
2022-12-08T15:00:31.388Z,7.77
2022-12-08T15:02:58.994Z,8.68
2022-12-08T15:05:28.371Z,5.35
2022-12-08T15:08:01.087Z,9.90
2022-12-08T15:10:31.931Z,6.30
2022-12-08T15:13:03.339Z,6.55
2022-12-08T15:15:31.822Z,6.80
2022-12-08T15:18:05.210Z,9.90
2022-12-08T15:20:35.884Z,7.50
2022-12-08T15:23:03.719Z,9.73
2022-12-08T15:25:32.752Z,7.60
2022-12-08T15:28:00.377Z,7.20
2022-12-08T15:30:28.580Z,6.00
2022-12-08T15:32:56.364Z,5.07
2022-12-08T15:35:24.051Z,8.63
2022-12-08T15:37:53.513Z,7.45
2022-12-08T15:40:22.867Z,6.63
2022-12-08T15:42:51.900Z,7.30
2022-12-08T15:45:19.612Z,8.43
2022-12-08T15:47:47.314Z,8.73
2022-12-08T15:50:18.828Z,10.77
2022-12-08T15:52:46.784Z,9.20
2022-12-08T15:55:14.854Z,9.95
2022-12-08T15:58:31.250Z,8.93
2022-12-08T16:00:53.095Z,6.77
2022-12-08T16:04:09.058Z,6.97
2022-12-08T16:09:11.629Z,7.35
2022-12-08T16:12:06.689Z,10.47
2022-12-08T16:17:27.247Z,9.17
2022-12-08T16:19:55.036Z,13.90
2022-12-08T16:25:21.651Z,9.13
2022-12-08T16:28:29.298Z,15.18
2022-12-08T16:30:38.696Z,14.00
2022-12-08T16:33:07.626Z,12.73
2022-12-08T16:35:35.272Z,13.38
2022-12-08T16:38:03.054Z,15.77
2022-12-08T16:40:30.740Z,14.43
2022-12-08T16:42:58.560Z,22.23
2022-12-08T16:45:27.408Z,16.10
2022-12-08T16:47:56.203Z,11.80
2022-12-08T16:50:26.605Z,10.17
2022-12-08T16:52:57.351Z,12.30
2022-12-08T16:55:24.940Z,11.20
2022-12-08T16:57:52.562Z,12.20
2022-12-08T17:00:21.143Z,10.20
2022-12-08T17:02:49.063Z,14.27
2022-12-08T17:05:18.559Z,12.25
2022-12-08T17:07:48.122Z,11.37
2022-12-08T17:10:18.529Z,13.47
2022-12-08T17:12:46.376Z,14.10
2022-12-08T17:15:16.185Z,10.40
2022-12-08T17:17:43.974Z,12.00
2022-12-08T17:20:13.708Z,10.07
2022-12-08T17:22:41.296Z,10.88
2022-12-08T17:25:10.513Z,12.80
2022-12-08T17:27:38.219Z,20.20
2022-12-08T17:30:06.432Z,13.90
2022-12-08T17:32:34.640Z,17.57
2022-12-08T17:35:02.631Z,11.10
2022-12-08T17:37:30.380Z,12.90
2022-12-08T17:39:57.955Z,20.20
2022-12-08T17:42:27.339Z,18.37
2022-12-08T17:44:55.367Z,16.03
2022-12-08T17:47:23.149Z,13.38
2022-12-08T17:49:50.896Z,13.77
2022-12-08T17:52:18.428Z,13.87
2022-12-08T17:54:45.975Z,69.05
2022-12-08T17:57:13.626Z,32.10
2022-12-08T17:59:42.616Z,29.27
2022-12-08T18:02:11.308Z,34.57
2022-12-08T18:04:38.992Z,26.93
2022-12-08T18:07:06.698Z,18.33
2022-12-08T18:09:34.789Z,17.20
2022-12-08T18:12:02.343Z,19.08
2022-12-08T18:14:29.871Z,16.43
2022-12-08T18:16:59.776Z,16.93
2022-12-08T18:19:27.890Z,22.27
2022-12-08T18:21:55.488Z,22.48
2022-12-08T18:24:23.733Z,15.73
2022-12-08T18:26:52.141Z,18.60
2022-12-08T18:29:19.879Z,18.65
2022-12-08T18:31:47.416Z,13.50
2022-12-08T18:34:16.532Z,15.03
2022-12-08T18:36:44.130Z,16.73
2022-12-08T18:39:20.959Z,19.35
2022-12-08T18:41:48.476Z,17.93
2022-12-08T18:44:16.231Z,18.50
2022-12-08T18:46:43.867Z,16.53
2022-12-08T18:49:12.691Z,12.20
2022-12-08T18:51:41.759Z,14.03
2022-12-08T18:54:09.706Z,14.27
2022-12-08T18:56:37.469Z,13.27
2022-12-08T18:59:06.237Z,15.07
2022-12-08T19:01:34.291Z,18.77
2022-12-08T19:06:52.127Z,13.53
2022-12-08T19:09:20.035Z,15.10
2022-12-08T19:11:47.856Z,11.75
2022-12-08T19:14:19.208Z,19.90
2022-12-08T19:16:50.245Z,16.23
2022-12-08T19:19:21.571Z,14.23
2022-12-08T19:21:49.066Z,14.57
2022-12-08T19:24:20.458Z,13.60
2022-12-08T19:26:48.031Z,13.63
2022-12-08T19:29:15.744Z,18.50
2022-12-08T19:31:43.513Z,21.60
2022-12-08T19:34:11.238Z,16.90
2022-12-08T19:36:42.610Z,14.27
2022-12-08T19:39:31.571Z,14.23
2022-12-08T19:42:18.166Z,22.40
2022-12-08T19:44:54.762Z,31.37
2022-12-08T19:47:22.899Z,26.37
2022-12-08T19:49:50.444Z,21.57
2022-12-08T19:52:18.181Z,26.20
2022-12-08T19:54:45.811Z,27.37
2022-12-08T19:57:14.729Z,21.87
2022-12-08T19:59:42.436Z,24.10
2022-12-08T20:02:11.608Z,15.13
2022-12-08T20:04:39.218Z,13.17
2022-12-08T20:07:06.750Z,15.83
2022-12-08T20:09:34.406Z,13.70
2022-12-08T20:12:01.984Z,12.30
2022-12-08T20:14:31.009Z,10.13
2022-12-08T20:16:58.576Z,15.83
2022-12-08T20:19:26.357Z,13.93
2022-12-08T20:21:53.934Z,17.60
2022-12-08T20:24:21.703Z,13.53
2022-12-08T20:26:49.211Z,15.60
2022-12-08T20:29:17.111Z,13.87
2022-12-08T20:31:46.502Z,16.50
2022-12-08T20:34:15.856Z,13.73
2022-12-08T20:36:43.662Z,10.97
2022-12-08T20:39:12.142Z,15.77
2022-12-08T20:41:39.742Z,17.27
2022-12-08T20:44:07.622Z,25.33
2022-12-08T20:46:35.974Z,17.60
2022-12-08T20:49:05.450Z,18.67
2022-12-08T20:51:35.544Z,16.63
2022-12-08T20:54:04.520Z,16.50
2022-12-08T20:56:32.736Z,21.07
2022-12-08T20:59:00.436Z,17.27
2022-12-08T21:01:28.157Z,16.27
2022-12-08T21:03:56.104Z,13.33
2022-12-08T21:06:26.988Z,13.40
2022-12-08T21:08:55.007Z,12.73
2022-12-08T21:11:22.778Z,16.93
2022-12-08T21:13:50.381Z,15.27
2022-12-08T21:16:18.116Z,19.77
2022-12-08T21:18:46.081Z,17.57
2022-12-08T21:21:15.024Z,17.50
2022-12-08T21:23:44.476Z,16.90
2022-12-08T21:26:13.117Z,12.43
2022-12-08T21:28:40.767Z,15.23
2022-12-08T21:31:09.013Z,16.60
2022-12-08T21:33:37.192Z,16.50
2022-12-08T21:36:08.187Z,14.77
2022-12-08T21:38:36.271Z,11.93
2022-12-08T21:41:09.179Z,11.47
2022-12-08T21:43:36.737Z,13.77
2022-12-08T21:46:04.384Z,16.80
2022-12-08T21:48:31.960Z,24.67
2022-12-08T21:51:04.351Z,17.20
2022-12-08T21:53:32.015Z,13.70
2022-12-08T21:55:59.580Z,13.73
2022-12-08T21:58:31.989Z,13.53
2022-12-08T22:01:05.646Z,16.37
2022-12-08T22:03:33.429Z,26.33
2022-12-08T22:06:04.786Z,19.57
2022-12-08T22:08:32.499Z,18.77
2022-12-08T22:11:00.265Z,21.43
2022-12-08T22:13:29.390Z,24.10
2022-12-08T22:15:58.359Z,22.40
2022-12-08T22:18:26.317Z,24.90
2022-12-08T22:20:53.979Z,16.90
2022-12-08T22:23:21.715Z,24.33
2022-12-08T22:25:56.549Z,22.73
2022-12-08T22:28:24.245Z,18.30
2022-12-08T22:30:53.302Z,23.27
2022-12-08T22:33:20.786Z,18.93
2022-12-08T22:35:55.971Z,20.23
2022-12-08T22:38:23.523Z,17.67
2022-12-08T22:40:51.242Z,21.40
2022-12-08T22:43:19.038Z,22.40
2022-12-08T22:45:46.594Z,21.40
2022-12-08T22:48:15.883Z,19.83
2022-12-08T22:50:43.717Z,23.53
2022-12-08T22:53:11.563Z,23.43
2022-12-08T22:55:41.671Z,21.40
2022-12-08T22:58:09.355Z,26.40
2022-12-08T23:00:37.180Z,18.30
2022-12-08T23:03:05.261Z,20.43
2022-12-08T23:05:35.310Z,18.43
2022-12-08T23:08:03.227Z,16.80
2022-12-08T23:10:31.459Z,17.03
2022-12-08T23:13:03.714Z,11.47
2022-12-08T23:15:31.703Z,13.23
2022-12-08T23:17:59.338Z,14.17
2022-12-08T23:20:27.195Z,13.67
2022-12-08T23:22:56.306Z,13.57
2022-12-08T23:25:23.888Z,15.70
2022-12-08T23:27:51.413Z,23.40
2022-12-08T23:30:19.061Z,16.13
2022-12-08T23:32:46.641Z,15.80
2022-12-08T23:35:14.331Z,20.13
2022-12-08T23:37:41.877Z,16.03
2022-12-08T23:40:11.923Z,16.67
2022-12-08T23:42:40.148Z,17.47
2022-12-08T23:45:08.467Z,21.87
2022-12-08T23:47:36.409Z,15.53
2022-12-08T23:50:05.096Z,19.83
2022-12-08T23:52:33.128Z,15.60
2022-12-08T23:55:00.985Z,16.93
2022-12-08T23:57:30.090Z,14.90
2022-12-08T23:59:57.605Z,16.00
